Terminal Aerodrome Forecast
Issued by NWS Binghamton, NY

Home | Current Version | Previous Version | Text Only | Print | Product List | Glossary On
Versions: 1 2 3 4 5 6 7 8 9 10 11 12 13 14 15 16 17 18 19 20 21 22 23 24 25 26 27
000
FTUS41 KBGM 211124
TAFBGM
TAF
KBGM 211124Z 2112/2212 30009KT P6SM -SHRA OVC040
     FM211500 26012G25KT P6SM BKN040
      TEMPO 2120/2124 -SHRA
     FM220000 22009KT P6SM BKN100
     FM220700 20009KT P6SM OVC040=

USA.gov is the U.S. government's official web portal to all federal, state and local government web resources and services.